General Aviation Weather

Text Reports

Enter one or more of the following location identifiers separated by a space:

Zip Code, Four-Character ICAO or Three-Character IATA airport codes.

METAR - Aviation Routine Weather Report
KAHQ - Wahoo, Nebraska
Updated at 4:55 AM GMT on April 02, 2015 (11:55 PM CDT):
METAR KAHQ 020455Z AUTO 33009KT 7SM RA SCT046 BKN050 OVC080 13/11 A2974 RMK AO2 P0022 T01300107
TAF - Terminal Area Forecast
KAHQ - Wahoo, Nebraska
Updated at 4:55 AM GMT on April 02, 2015 (11:55 PM CDT):
No TAF is currently available for this location.
Decoded:
No decoded TAF is available.
PIREP - Pilot Weather Report
KAHQ - Wahoo, Nebraska
Updated at 4:55 AM GMT on April 02, 2015 (11:55 PM CDT):
No PIREP is currently available for this location.
AIRMET - Airmens Meteorological Information
KAHQ - Wahoo, Nebraska
Updated at 4:55 AM GMT on April 02, 2015 (11:55 PM CDT):
No AIRMET is currently available for this location.
SIGMET - Significant Meteorological Information
KAHQ - Wahoo, Nebraska
Updated at 4:55 AM GMT on April 02, 2015 (11:55 PM CDT):
No SIGMET is currently available for this location.
NOTAM - Notice to Airmen
KAHQ - Wahoo, Nebraska
Updated at 4:55 AM GMT on April 02, 2015 (11:55 PM CDT):
No NOTAM is currently available for this location.
Forecast Area
KAHQ - Wahoo, Nebraska
Updated at 4:55 AM GMT on April 02, 2015 (11:55 PM CDT):
No NOTAM is currently available for this location.
Aviation Weather Maps